Clinton, IA

11:29 PM CDT on August 17, 2017 (GMT -0500)
Clinton Municipal

Weather History for KCWI - May, 2013

Change the Weather History Date:

Sunday, May 26, 2013

  Actual Average Record
Temperature  
Mean Temperature 52 °F -  
Max Temperature 57 °F 74 °F 93 °F (1978)
Min Temperature 46 °F 53 °F 38 °F (1961)
Degree Days  
Heating Degree Days 14    
Growing Degree Days 2 (Base 50)    
Moisture  
Dew Point 46 °F    
Average Humidity 78    
Maximum Humidity 88    
Minimum Humidity 62    
Precipitation  
Precipitation 0.70 in - - ()
Sea Level Pressure  
Sea Level Pressure 30.20 in    
Wind  
Wind Speed 12 mph (ESE)    
Max Wind Speed 21 mph    
Max Gust Speed 29 mph    
Visibility 9 miles    
Events Thunderstorm    
Averages and records for this station are not official NWS values.
T = Trace of Precipitation, MM = Missing Value Source: NWS Daily Summary

Daily Weather History Graph

Daily Weather History Graph

Search for Another Location

Airport or City:

Trip Planner

Search our weather history database for the weather conditions in past years. The results will help you decide how hot, cold, wet, or windy it might be!

Date:

Astronomy

May. 26, 2013 Rise Set
Actual Time 5:32 AM CDT 8:25 PM CDT
Civil Twilight 4:59 AM CDT 8:58 PM CDT
Nautical Twilight 4:17 AM CDT 9:40 PM CDT
Astronomical Twilight 3:29 AM CDT 10:28 PM CDT
Moon 10:12 PM CDT (5/26) 7:01 AM CDT (5/26)
Length of Visible Light 15h 59m
Length of Day
14h 53m
Waning Gibbous, 96% of the Moon is Illuminated
May 26
Waning Gibbous
May 31
Last Quarter
Jun 8
New
Jun 16
First Quarter
Jun 23
Full

Hourly Weather History & Observations

Time (CDT) Temp. Windchill Dew Point Humidity Pressure Visibility Wind Dir Wind Speed Gust Speed Precip Events Conditions
12:15 AM 48.2 °F - 42.8 °F 82% 30.29 in 10.0 mi ESE 9.2 mph - N/A   Clear
12:35 AM 48.2 °F - 42.8 °F 82% 30.28 in 10.0 mi East 10.4 mph - N/A   Clear
12:55 AM 48.2 °F - 42.8 °F 82% 30.27 in 10.0 mi ESE 9.2 mph - N/A   Clear
1:15 AM 48.2 °F - 41.0 °F 76% 30.26 in 10.0 mi East 10.4 mph - N/A   Clear
1:35 AM 48.2 °F - 41.0 °F 76% 30.26 in 10.0 mi ESE 9.2 mph - N/A   Clear
1:55 AM 48.2 °F - 41.0 °F 76% 30.26 in 10.0 mi East 8.1 mph - N/A   Clear
2:15 AM 46.4 °F 42.4 °F 41.0 °F 81% 30.26 in 10.0 mi East 8.1 mph - N/A   Clear
2:35 AM 46.4 °F 42.4 °F 41.0 °F 81% 30.26 in 10.0 mi East 8.1 mph - N/A   Clear
2:55 AM 46.4 °F 42.4 °F 41.0 °F 81% 30.26 in 10.0 mi ESE 8.1 mph - N/A   Clear
3:15 AM 46.4 °F 41.9 °F 39.2 °F 76% 30.25 in 10.0 mi East 9.2 mph - N/A   Clear
3:35 AM 46.4 °F 41.9 °F 41.0 °F 81% 30.25 in 10.0 mi East 9.2 mph - N/A   Clear
3:55 AM 48.2 °F - 39.2 °F 71% 30.25 in 10.0 mi East 11.5 mph - N/A   Clear
4:15 AM 48.2 °F - 41.0 °F 76% 30.25 in 10.0 mi East 12.7 mph - N/A   Mostly Cloudy
4:35 AM 48.2 °F - 42.8 °F 82% 30.25 in 10.0 mi ESE 12.7 mph - N/A   Overcast
4:55 AM 48.2 °F - 41.0 °F 76% 30.24 in 10.0 mi East 13.8 mph - N/A   Overcast
5:15 AM 48.2 °F - 41.0 °F 76% 30.24 in 10.0 mi ESE 13.8 mph - N/A   Mostly Cloudy
5:35 AM 48.2 °F - 41.0 °F 76% 30.24 in 10.0 mi East 12.7 mph - N/A   Mostly Cloudy
5:55 AM 48.2 °F - 41.0 °F 76% 30.24 in 10.0 mi East 13.8 mph 18.4 mph N/A   Overcast
6:15 AM 48.2 °F - 41.0 °F 76% 30.25 in 10.0 mi East 13.8 mph - N/A   Overcast
6:35 AM 48.2 °F - 39.2 °F 71% 30.25 in 10.0 mi ESE 12.7 mph - N/A   Scattered Clouds
6:55 AM 48.2 °F - 39.2 °F 71% 30.26 in 10.0 mi ESE 12.7 mph - N/A   Mostly Cloudy
7:15 AM 48.2 °F - 39.2 °F 71% 30.26 in 8.0 mi ESE 12.7 mph - N/A   Overcast
7:35 AM 48.2 °F - 39.2 °F 71% 30.27 in 10.0 mi ESE 11.5 mph - N/A   Overcast
7:55 AM 48.2 °F - 39.2 °F 71% 30.26 in 10.0 mi East 12.7 mph - N/A   Overcast
8:15 AM 48.2 °F - 39.2 °F 71% 30.26 in 10.0 mi ESE 10.4 mph - N/A   Overcast
8:35 AM 48.2 °F - 39.2 °F 71% 30.27 in 10.0 mi ESE 12.7 mph - N/A   Overcast
8:55 AM 50.0 °F - 39.2 °F 66% 30.27 in 10.0 mi ESE 11.5 mph - N/A   Overcast
9:15 AM 50.0 °F - 39.2 °F 66% 30.26 in 10.0 mi ESE 13.8 mph - N/A   Overcast
9:35 AM 51.8 °F - 39.2 °F 62% 30.26 in 10.0 mi ESE 10.4 mph - N/A   Mostly Cloudy
9:55 AM 51.8 °F - 39.2 °F 62% 30.25 in 10.0 mi ESE 12.7 mph - N/A   Scattered Clouds
10:15 AM 51.8 °F - 41.0 °F 67% 30.25 in 10.0 mi SE 13.8 mph - N/A   Scattered Clouds
10:35 AM 53.6 °F - 41.0 °F 62% 30.24 in 10.0 mi SSE 20.7 mph 27.6 mph N/A   Mostly Cloudy
10:55 AM 55.4 °F - 42.8 °F 63% 30.24 in 10.0 mi ESE 19.6 mph - N/A   Mostly Cloudy
11:15 AM 55.4 °F - 42.8 °F 63% 30.23 in 10.0 mi SE 18.4 mph 27.6 mph N/A   Overcast
11:35 AM 55.4 °F - 44.6 °F 67% 30.25 in 10.0 mi SE 13.8 mph 23.0 mph N/A   Overcast
11:55 AM 53.6 °F - 44.6 °F 72% 30.26 in 10.0 mi ESE 9.2 mph - N/A   Overcast
12:15 PM 55.4 °F - 46.4 °F 72% 30.27 in 10.0 mi ESE 5.8 mph - N/A   Overcast
12:35 PM 55.4 °F - 46.4 °F 72% 30.27 in 10.0 mi SE 5.8 mph - N/A   Mostly Cloudy
12:55 PM 55.4 °F - 46.4 °F 72% 30.23 in 10.0 mi ESE 15.0 mph - N/A   Mostly Cloudy
1:15 PM 55.4 °F - 48.2 °F 77% 30.22 in 10.0 mi ESE 13.8 mph 19.6 mph 0.01 in   Mostly Cloudy
1:35 PM 55.4 °F - 48.2 °F 77% 30.21 in 10.0 mi East 17.3 mph - 0.01 in   Clear
1:55 PM 55.4 °F - 46.4 °F 72% 30.20 in 10.0 mi ESE 15.0 mph - 0.01 in   Partly Cloudy
2:15 PM 55.4 °F - 48.2 °F 77% 30.20 in 10.0 mi ESE 17.3 mph - N/A   Partly Cloudy
2:35 PM 55.4 °F - 48.2 °F 77% 30.19 in 10.0 mi ESE 18.4 mph 23.0 mph N/A   Scattered Clouds
2:55 PM 55.4 °F - 46.4 °F 72% 30.25 in 10.0 mi North 6.9 mph - N/A Thunderstorm Thunderstorm
3:15 PM 53.6 °F - 48.2 °F 82% 30.22 in 4.0 mi ENE 8.1 mph - 0.18 in Thunderstorm Mostly Cloudy
3:35 PM 55.4 °F - 50.0 °F 82% 30.20 in 9.0 mi East 16.1 mph 19.6 mph 0.19 in   Mostly Cloudy
3:55 PM 55.4 °F - 50.0 °F 82% 30.18 in 10.0 mi East 17.3 mph - 0.19 in   Clear
4:15 PM 55.4 °F - 50.0 °F 82% 30.15 in 10.0 mi ESE 20.7 mph 26.5 mph N/A   Clear
4:35 PM 57.2 °F - 51.8 °F 82% 30.15 in 10.0 mi ESE 19.6 mph 24.2 mph N/A   Clear
4:55 PM 55.4 °F - 50.0 °F 82% 30.13 in 9.0 mi ESE 20.7 mph - N/A   Clear
5:15 PM 55.4 °F - 50.0 °F 82% 30.13 in 10.0 mi ESE 17.3 mph 25.3 mph N/A   Clear
5:35 PM 55.4 °F - 51.8 °F 88% 30.16 in 8.0 mi ENE 13.8 mph 23.0 mph 0.01 in   Scattered Clouds
5:55 PM 55.4 °F - 51.8 °F 88% 30.12 in 7.0 mi ESE 17.3 mph - 0.05 in   Overcast
6:15 PM 55.4 °F - 51.8 °F 88% 30.12 in 5.0 mi ESE 16.1 mph - 0.05 in   Mostly Cloudy
6:35 PM 55.4 °F - 51.8 °F 88% 30.14 in 3.0 mi ESE 11.5 mph - 0.15 in Thunderstorm Mostly Cloudy
6:55 PM 55.4 °F - 51.8 °F 88% 30.11 in 4.0 mi East 16.1 mph - 0.27 in   Overcast
7:15 PM 55.4 °F - 51.8 °F 88% 30.12 in 4.0 mi East 10.4 mph - 0.01 in   Mostly Cloudy
7:35 PM 55.4 °F - 51.8 °F 88% 30.10 in 4.0 mi East 19.6 mph - 0.03 in   Mostly Cloudy
7:55 PM 55.4 °F - 51.8 °F 88% 30.08 in 5.0 mi ESE 20.7 mph 28.8 mph 0.04 in   Partly Cloudy
8:15 PM 55.4 °F - 51.8 °F 88% 30.09 in 5.0 mi ESE 17.3 mph - N/A   Clear
8:35 PM 55.4 °F - 51.8 °F 88% 30.08 in 6.0 mi East 18.4 mph - 0.02 in   Mostly Cloudy
8:55 PM 55.4 °F - 51.8 °F 88% 30.10 in 7.0 mi East 13.8 mph 23.0 mph 0.05 in   Overcast
9:15 PM 55.4 °F - 51.8 °F 88% 30.10 in 6.0 mi ESE 13.8 mph - 0.03 in   Mostly Cloudy
9:35 PM 55.4 °F - 51.8 °F 88% 30.12 in 5.0 mi ESE 11.5 mph - 0.08 in   Overcast
9:55 PM 55.4 °F - 51.8 °F 88% 30.12 in 6.0 mi East 11.5 mph - 0.09 in   Mostly Cloudy
10:15 PM 55.4 °F - 51.8 °F 88% 30.12 in 7.0 mi East 13.8 mph - N/A   Clear
10:35 PM 55.4 °F - 51.8 °F 88% 30.11 in 5.0 mi East 16.1 mph - N/A   Clear
10:55 PM 55.4 °F - 51.8 °F 88% 30.09 in 5.0 mi East 17.3 mph 20.7 mph N/A   Clear
11:15 PM 55.4 °F - 51.8 °F 88% 30.09 in 5.0 mi East 16.1 mph 21.9 mph N/A   Clear
11:35 PM 55.4 °F - 51.8 °F 88% 30.08 in 5.0 mi East 19.6 mph 24.2 mph N/A   Clear
11:55 PM 55.4 °F - 51.8 °F 88% 30.07 in 6.0 mi East 17.3 mph 24.2 mph N/A   Clear